Time;durP1;ratioP1;P1;durP2;ratioP2;P2;SDS_P1;SDS_P2;PMS_P1;PMS_P2;Temp;Humidity;BMP_temperature;BMP_pressure;BME280_temperature;BME280_humidity;BME280_pressure;Samples;Min_cycle;Max_cycle;Signal;HPM_P1;HPM_P2
2023/11/20 00:02:16;;;;;;;13.60;8.40;;;;;;;-147.86;100.00;51515.98;105939;1256;60444;-43
2023/11/20 00:04:43;;;;;;;12.60;8.40;;;;;;;-147.86;100.00;51521.09;105887;1251;73806;-42
2023/11/20 00:07:10;;;;;;;15.30;8.70;;;;;;;-147.86;100.00;51522.26;105932;1256;65445;-43
2023/11/20 00:09:38;;;;;;;12.30;8.00;;;;;;;-147.86;100.00;51524.23;105926;1255;72341;-46
2023/11/20 00:12:06;;;;;;;13.40;7.70;;;;;;;-147.86;100.00;51525.01;105901;1256;61100;-44
2023/11/20 00:14:33;;;;;;;11.40;8.30;;;;;;;-147.86;100.00;51523.05;105938;1256;60420;-43
2023/11/20 00:17:00;;;;;;;12.90;8.50;;;;;;;-147.86;100.00;51550.12;105886;1255;73685;-45
2023/11/20 00:19:27;;;;;;;11.70;8.30;;;;;;;-147.86;100.00;51545.80;105882;1256;65358;-42
2023/11/20 00:21:54;;;;;;;14.10;8.40;;;;;;;-147.86;100.00;51552.09;105885;1254;72900;-43
2023/11/20 00:24:20;;;;;;;14.80;8.50;;;;;;;-147.86;100.00;51556.79;105910;1256;60328;-42
2023/11/20 00:26:47;;;;;;;13.50;7.70;;;;;;;-147.86;100.00;51551.69;105759;1251;60506;-45
2023/11/20 00:29:15;;;;;;;11.90;7.70;;;;;;;-147.86;100.00;51546.98;105572;1261;73663;-45
2023/11/20 00:31:42;;;;;;;13.20;8.10;;;;;;;-147.86;100.00;51556.80;105717;1252;64035;-44
2023/11/20 00:34:09;;;;;;;12.10;8.20;;;;;;;-147.86;100.00;51558.36;105861;1257;72622;-48
2023/11/20 00:36:37;;;;;;;11.00;7.70;;;;;;;-147.86;100.00;51578.38;105926;1256;61215;-45
2023/11/20 00:39:04;;;;;;;11.40;7.50;;;;;;;-147.86;100.00;51582.70;105935;1255;60448;-47
2023/11/20 00:41:35;;;;;;;11.10;7.30;;;;;;;-147.86;100.00;51576.80;105880;1257;72392;-47
2023/11/20 00:44:03;;;;;;;12.30;8.30;;;;;;;-147.86;100.00;51585.04;105908;1255;65491;-41
2023/11/20 00:46:29;;;;;;;12.20;7.80;;;;;;;-147.86;100.00;51590.54;105912;1256;71487;-43
2023/11/20 00:48:56;;;;;;;14.00;8.20;;;;;;;-147.86;100.00;51581.12;105882;1252;61169;-44
2023/11/20 00:51:25;;;;;;;15.40;9.80;;;;;;;-147.86;100.00;51613.70;105920;1257;60520;-46
2023/11/20 00:53:52;;;;;;;15.50;8.40;;;;;;;-147.86;100.00;51601.52;105955;1257;73873;-43
2023/11/20 00:56:19;;;;;;;10.90;7.60;;;;;;;-147.86;100.00;51610.55;105932;1256;65428;-42
2023/11/20 00:58:46;;;;;;;11.40;8.20;;;;;;;-147.86;100.00;51610.95;105911;1257;72623;-43
2023/11/20 01:01:13;;;;;;;12.30;7.80;;;;;;;-147.86;100.00;51609.38;105945;1255;61056;-42
2023/11/20 01:03:40;;;;;;;12.60;7.70;;;;;;;-147.86;100.00;51614.09;105888;1255;60423;-41
2023/11/20 01:06:08;;;;;;;11.70;7.30;;;;;;;-147.86;100.00;51636.84;105913;1252;73801;-46
2023/11/20 01:08:35;;;;;;;14.40;8.40;;;;;;;-147.86;100.00;51630.96;105926;1256;65623;-40
2023/11/20 01:11:10;;;;;;;14.20;8.90;;;;;;;-147.86;100.00;51627.43;105879;1256;71594;-40
2023/11/20 01:13:37;;;;;;;11.10;6.70;;;;;;;-147.86;100.00;51631.74;105886;1260;61209;-40
2023/11/20 01:16:05;;;;;;;15.10;8.10;;;;;;;-147.86;100.00;51636.45;105913;1256;60424;-42
2023/11/20 01:18:33;;;;;;;13.30;8.80;;;;;;;-147.86;100.00;51631.35;105932;1257;73677;-45
2023/11/20 01:21:01;;;;;;;16.80;9.20;;;;;;;-147.86;100.00;51651.76;105929;1251;64344;-43
2023/11/20 01:23:28;;;;;;;15.20;9.30;;;;;;;-147.86;100.00;51637.24;105892;1255;72622;-44
2023/11/20 01:25:55;;;;;;;16.10;10.00;;;;;;;-147.86;100.00;51652.93;105926;1257;61073;-43
2023/11/20 01:28:23;;;;;;;13.90;8.90;;;;;;;-147.86;100.00;51649.01;105936;1256;60400;-41
2023/11/20 01:30:50;;;;;;;15.70;9.10;;;;;;;-147.86;100.00;51658.82;105880;1255;73741;-41
2023/11/20 01:33:17;;;;;;;17.30;8.40;;;;;;;-147.86;100.00;51660.00;105877;1257;65301;-42
2023/11/20 01:35:47;;;;;;;17.70;9.90;;;;;;;-147.86;100.00;51644.30;105898;1254;72303;-43
2023/11/20 01:38:16;;;;;;;17.10;8.90;;;;;;;-147.86;100.00;51685.90;105907;1251;60479;-45
2023/11/20 01:40:44;;;;;;;16.30;9.60;;;;;;;-147.86;100.00;51676.48;105885;1256;60509;-44
2023/11/20 01:43:11;;;;;;;16.40;11.00;;;;;;;-147.86;100.00;51670.20;105924;1255;73881;-44
2023/11/20 01:45:39;;;;;;;18.20;10.80;;;;;;;-147.86;100.00;51676.87;105896;1254;65738;-42
2023/11/20 01:48:07;;;;;;;22.70;13.50;;;;;;;-147.86;100.00;51680.40;105952;1254;72768;-45
2023/11/20 01:50:34;;;;;;;22.30;11.70;;;;;;;-147.86;100.00;51669.81;105914;1254;60840;-43
2023/11/20 01:53:01;;;;;;;22.90;12.60;;;;;;;-147.86;100.00;51680.79;105853;1251;60463;-41
2023/11/20 01:55:29;;;;;;;21.40;13.10;;;;;;;-147.86;100.00;51667.84;105939;1255;72413;-45
2023/11/20 01:57:56;;;;;;;22.80;12.50;;;;;;;-147.86;100.00;51692.17;105658;1258;65456;-42
2023/11/20 02:00:23;;;;;;;19.00;11.60;;;;;;;-147.86;100.00;51672.55;105847;1255;72314;-41
2023/11/20 02:02:50;;;;;;;21.40;12.30;;;;;;;-147.86;100.00;51687.07;105914;1257;61130;-45
2023/11/20 02:05:19;;;;;;;24.00;13.30;;;;;;;-147.86;100.00;51685.90;105922;1252;60432;-43
2023/11/20 02:07:46;;;;;;;20.70;12.80;;;;;;;-147.86;100.00;51696.49;105877;1256;72459;-43
2023/11/20 02:10:13;;;;;;;20.80;12.80;;;;;;;-147.86;100.00;51697.27;105889;1256;65314;-40
2023/11/20 02:12:40;;;;;;;19.70;11.30;;;;;;;-147.86;100.00;51692.57;105891;1255;72660;-43
2023/11/20 02:15:08;;;;;;;19.20;11.70;;;;;;;-147.86;100.00;51705.52;105946;1254;61132;-41
2023/11/20 02:17:35;;;;;;;19.40;12.00;;;;;;;-147.86;100.00;51721.61;105886;1254;60486;-42
2023/11/20 02:20:03;;;;;;;20.60;11.90;;;;;;;-147.86;100.00;51708.66;105906;1256;73684;-40
2023/11/20 02:22:30;;;;;;;22.30;12.20;;;;;;;-147.86;100.00;51696.49;105844;1253;63990;-42
2023/11/20 02:24:57;;;;;;;19.60;11.70;;;;;;;-147.86;100.00;51714.15;105919;1254;72567;-43
2023/11/20 02:27:46;;;;;;;19.50;11.50;;;;;;;-147.86;100.00;51714.15;105916;1257;61140;-41
2023/11/20 02:30:13;;;;;;;19.00;11.40;;;;;;;-147.86;100.00;51708.66;105944;1253;60409;-40
2023/11/20 02:32:39;;;;;;;18.40;11.10;;;;;;;-147.86;100.00;51734.16;105882;1256;73791;-45
2023/11/20 02:35:07;;;;;;;23.00;12.90;;;;;;;-147.86;100.00;51717.68;105891;1257;65457;-41
2023/11/20 02:37:33;;;;;;;20.30;12.00;;;;;;;-147.86;100.00;51711.79;105730;1255;71551;-42
2023/11/20 02:40:00;;;;;;;19.60;11.80;;;;;;;-147.86;100.00;51730.63;105973;1257;61023;-41
2023/11/20 02:42:28;;;;;;;18.40;11.20;;;;;;;-147.86;100.00;51728.28;105919;1257;60329;-41
2023/11/20 02:44:54;;;;;;;20.80;12.20;;;;;;;-147.86;100.00;51715.33;105916;1254;73739;-43
2023/11/20 02:47:22;;;;;;;20.50;11.80;;;;;;;-147.86;100.00;51729.85;105902;1254;64532;-46
2023/11/20 02:49:49;;;;;;;20.80;11.20;;;;;;;-147.86;100.00;51728.28;105927;1254;72483;-43
2023/11/20 02:52:16;;;;;;;17.20;10.80;;;;;;;-147.86;100.00;51747.90;105912;1256;61016;-40
2023/11/20 02:54:44;;;;;;;19.50;11.50;;;;;;;-147.86;100.00;51739.26;105864;1254;60537;-42
2023/11/20 02:57:11;;;;;;;17.60;10.60;;;;;;;-147.86;100.00;51751.43;105917;1251;73603;-41
2023/11/20 02:59:38;;;;;;;16.90;9.30;;;;;;;-147.86;100.00;51744.37;105931;1256;65837;-44
2023/11/20 03:02:05;;;;;;;19.20;11.50;;;;;;;-147.86;100.00;51731.02;105919;1254;72704;-42
2023/11/20 03:04:32;;;;;;;24.70;13.80;;;;;;;-147.86;100.00;51759.67;105873;1257;61136;-43
2023/11/20 03:07:00;;;;;;;20.30;12.10;;;;;;;-147.86;100.00;51767.52;105897;1252;60536;-41
2023/11/20 03:09:27;;;;;;;19.80;10.80;;;;;;;-147.86;100.00;51753.79;105924;1256;72953;-41
2023/11/20 03:11:54;;;;;;;18.60;11.90;;;;;;;-147.86;100.00;51746.33;105899;1256;65534;-41
2023/11/20 03:14:22;;;;;;;19.00;11.30;;;;;;;-147.86;100.00;51751.43;105945;1255;72740;-42
2023/11/20 03:16:49;;;;;;;26.10;11.20;;;;;;;-147.86;100.00;51742.80;105926;1252;60470;-42
2023/11/20 03:19:16;;;;;;;15.50;8.80;;;;;;;-147.86;100.00;51744.37;105898;1256;60431;-42
2023/11/20 03:21:43;;;;;;;21.40;10.90;;;;;;;-147.86;100.00;51779.29;105917;1255;73903;-43
2023/11/20 03:24:10;;;;;;;21.90;12.90;;;;;;;-147.86;100.00;51756.53;105914;1254;65290;-43
2023/11/20 03:26:37;;;;;;;18.00;11.60;;;;;;;-147.86;100.00;51778.12;105939;1254;72647;-41
2023/11/20 03:29:05;;;;;;;20.00;11.30;;;;;;;-147.86;100.00;51764.77;105959;1256;61310;-40
2023/11/20 03:31:36;;;;;;;18.60;12.10;;;;;;;-147.86;100.00;51765.95;105937;1257;60358;-41
2023/11/20 03:34:04;;;;;;;19.00;11.90;;;;;;;-147.86;100.00;51757.32;105953;1257;72798;-41
2023/11/20 03:36:32;;;;;;;18.10;10.00;;;;;;;-147.86;100.00;51763.20;105909;1257;64139;-41
2023/11/20 03:38:59;;;;;;;16.30;9.50;;;;;;;-147.86;100.00;51766.73;105838;1254;72699;-42
2023/11/20 03:41:26;;;;;;;14.80;10.30;;;;;;;-147.86;100.00;51772.23;105921;1256;60966;-43
2023/11/20 03:43:53;;;;;;;16.30;9.30;;;;;;;-147.86;100.00;51778.12;105925;1253;60440;-40
2023/11/20 03:46:20;;;;;;;17.40;10.00;;;;;;;-147.86;100.00;51753.39;105930;1256;73963;-45
2023/11/20 03:48:47;;;;;;;17.30;10.60;;;;;;;-147.86;100.00;51767.91;105894;1257;65343;-44
2023/11/20 03:51:17;;;;;;;19.00;11.80;;;;;;;-147.86;100.00;51782.04;105864;1254;72613;-45
2023/11/20 03:53:45;;;;;;;18.30;9.50;;;;;;;-147.86;100.00;51770.66;105926;1254;60831;-45
2023/11/20 03:56:12;;;;;;;20.10;11.30;;;;;;;-147.86;100.00;51763.59;105962;1254;60444;-45
2023/11/20 03:58:40;;;;;;;20.30;11.30;;;;;;;-147.86;100.00;51761.24;105899;1257;73792;-47
2023/11/20 04:01:07;;;;;;;15.30;8.00;;;;;;;-147.86;100.00;51769.09;105921;1256;65232;-43
2023/11/20 04:03:34;;;;;;;22.40;12.20;;;;;;;-147.86;100.00;51786.36;105874;1254;72755;-42
2023/11/20 04:06:01;;;;;;;20.80;12.50;;;;;;;-147.86;100.00;51768.30;105914;1256;60899;-44
2023/11/20 04:08:31;;;;;;;22.80;11.10;;;;;;;-147.86;100.00;51795.39;105876;1253;60443;-46
2023/11/20 04:10:58;;;;;;;18.60;10.40;;;;;;;-147.86;100.00;51769.09;105653;1256;404386;-46
2023/11/20 04:16:31;;;;;;;16.40;10.40;;;;;;;-147.86;100.00;51467.06;103529;1280;615222;-46
2023/11/20 04:18:59;;;;;;;20.60;11.30;;;;;;;-147.86;100.00;51916.65;104961;1269;61129;-40
2023/11/20 04:21:28;;;;;;;15.30;9.40;;;;;;;-147.86;100.00;51894.67;104911;1269;59205;-46
2023/11/20 04:23:55;;;;;;;21.60;10.10;;;;;;;-147.86;100.00;51898.59;104899;1269;72539;-47
2023/11/20 04:26:22;;;;;;;18.40;11.30;;;;;;;-147.86;100.00;51872.30;104944;1269;65522;-43
2023/11/20 04:28:49;;;;;;;16.90;10.50;;;;;;;-147.86;100.00;51865.63;104917;1257;807439;-44
2023/11/20 04:31:15;;;;;;;18.70;9.90;;;;;;;-147.86;100.00;51858.56;105857;1256;61117;-47
2023/11/20 04:33:43;;;;;;;16.30;10.50;;;;;;;-147.86;100.00;51832.27;105956;1253;60333;-47
2023/11/20 04:36:11;;;;;;;16.20;10.70;;;;;;;-147.86;100.00;51853.07;105960;1256;72018;-44
2023/11/20 04:38:38;;;;;;;16.10;9.40;;;;;;;-147.86;100.00;51838.16;105807;1256;65539;-42
2023/11/20 04:41:08;;;;;;;19.30;10.20;;;;;;;-147.86;100.00;51845.22;105626;1254;72495;-43
2023/11/20 04:43:35;;;;;;;18.30;10.00;;;;;;;-147.86;100.00;51853.46;105626;1254;61230;-45
2023/11/20 04:46:02;;;;;;;18.30;11.40;;;;;;;-147.86;100.00;51834.24;105968;1254;60191;-44
2023/11/20 04:48:29;;;;;;;17.80;11.30;;;;;;;-147.86;100.00;51837.77;105962;1256;72970;-45
2023/11/20 04:50:56;;;;;;;19.80;11.40;;;;;;;-147.86;100.00;51816.96;105993;1254;65442;-48
2023/11/20 04:53:24;;;;;;;23.90;11.10;;;;;;;-147.86;100.00;51835.41;105985;1256;72477;-44
2023/11/20 04:55:52;;;;;;;12.70;9.10;;;;;;;-147.86;100.00;51830.70;105973;1256;61164;-44
2023/11/20 04:58:21;;;;;;;16.70;9.30;;;;;;;-147.86;100.00;51832.66;105938;1254;60253;-47
2023/11/20 05:00:49;;;;;;;16.40;9.80;;;;;;;-147.86;100.00;51828.35;106038;1256;72985;-44
2023/11/20 05:03:17;;;;;;;18.40;10.20;;;;;;;-147.86;100.00;51816.18;105968;1256;65514;-46
2023/11/20 05:05:44;;;;;;;15.40;9.40;;;;;;;-147.86;100.00;51822.46;105959;1256;72688;-43
2023/11/20 05:08:11;;;;;;;15.50;9.90;;;;;;;-147.86;100.00;51834.63;105717;1259;61043;-46
2023/11/20 05:10:38;;;;;;;15.80;10.00;;;;;;;-147.86;100.00;51813.44;105949;1253;60390;-44
2023/11/20 05:13:06;;;;;;;15.70;9.80;;;;;;;-147.86;100.00;51816.57;105947;1256;73046;-45
2023/11/20 05:15:33;;;;;;;17.60;9.80;;;;;;;-147.86;100.00;51814.22;105937;1254;65298;-44
2023/11/20 05:18:00;;;;;;;18.00;10.50;;;;;;;-147.86;100.00;51832.27;105931;1254;72657;-42
2023/11/20 05:20:27;;;;;;;21.10;11.60;;;;;;;-147.86;100.00;51809.51;105920;1254;61051;-41
2023/11/20 05:22:55;;;;;;;24.50;13.50;;;;;;;-147.86;100.00;51827.17;105971;1254;60330;-42
2023/11/20 05:25:22;;;;;;;19.80;11.80;;;;;;;-147.86;100.00;51811.08;105913;1256;72961;-44
2023/11/20 05:27:49;;;;;;;22.80;13.00;;;;;;;-147.86;100.00;51820.11;105907;1257;65442;-46
2023/11/20 05:30:16;;;;;;;20.70;10.80;;;;;;;-147.86;100.00;51825.21;105806;1254;72664;-46
2023/11/20 05:32:42;;;;;;;18.50;10.90;;;;;;;-147.86;100.00;51825.21;105920;1256;61014;-42
2023/11/20 05:35:09;;;;;;;22.20;11.90;;;;;;;-147.86;100.00;51811.47;105929;1254;60347;-43
2023/11/20 05:37:36;;;;;;;18.20;9.10;;;;;;;-147.86;100.00;51823.24;105934;1252;72956;-44
2023/11/20 05:40:04;;;;;;;20.20;10.40;;;;;;;-147.86;100.00;51807.94;105873;1256;65408;-44
2023/11/20 05:42:31;;;;;;;20.30;11.10;;;;;;;-147.86;100.00;51821.28;105916;1254;72970;-45
2023/11/20 05:44:58;;;;;;;17.90;9.90;;;;;;;-147.86;100.00;51815.01;105865;1256;61169;-41
2023/11/20 05:47:25;;;;;;;18.20;9.20;;;;;;;-147.86;100.00;51815.01;105861;1254;60071;-42
2023/11/20 05:49:53;;;;;;;18.50;10.00;;;;;;;-147.86;100.00;51818.93;105926;1256;73081;-43
2023/11/20 05:52:19;;;;;;;27.10;11.70;;;;;;;-147.86;100.00;51822.46;105818;1260;65730;-43
2023/11/20 05:54:46;;;;;;;23.80;12.50;;;;;;;-147.86;100.00;51811.47;105803;1254;72500;-44
2023/11/20 05:57:13;;;;;;;19.10;10.90;;;;;;;-147.86;100.00;51797.74;105796;1259;61139;-42
2023/11/20 05:59:44;;;;;;;23.10;12.20;;;;;;;-147.86;100.00;51805.20;105844;1253;60285;-42
2023/11/20 06:02:12;;;;;;;19.10;11.00;;;;;;;-147.86;100.00;51802.84;105888;1258;72859;-42
2023/11/20 06:04:38;;;;;;;21.70;12.80;;;;;;;-147.86;100.00;51821.67;105870;1258;65492;-43
2023/11/20 06:07:05;;;;;;;19.90;11.80;;;;;;;-147.86;100.00;51809.51;105862;1259;72601;-42
2023/11/20 06:09:33;;;;;;;24.90;12.40;;;;;;;-147.86;100.00;51810.68;105853;1259;61129;-43
2023/11/20 06:11:59;;;;;;;20.50;10.80;;;;;;;-147.86;100.00;51815.40;105881;1254;60052;-43
2023/11/20 06:14:27;;;;;;;25.00;12.30;;;;;;;-147.86;100.00;51805.59;105819;1257;73022;-44
2023/11/20 06:16:53;;;;;;;25.30;12.70;;;;;;;-147.86;100.00;51797.74;105862;1258;65509;-43
2023/11/20 06:19:21;;;;;;;24.40;12.40;;;;;;;-147.86;100.00;51800.09;105910;1254;72594;-44
2023/11/20 06:21:49;;;;;;;19.20;10.90;;;;;;;-147.86;100.00;51806.37;105819;1258;61035;-43
2023/11/20 06:24:16;;;;;;;21.70;12.80;;;;;;;-147.86;100.00;51806.37;105871;1255;60021;-45
2023/11/20 06:26:43;;;;;;;26.90;12.60;;;;;;;-147.86;100.00;51797.35;105780;1257;73053;-41
2023/11/20 06:29:10;;;;;;;22.20;13.50;;;;;;;-147.86;100.00;51793.42;105574;1258;65715;-47
2023/11/20 06:31:37;;;;;;;21.60;12.70;;;;;;;-147.86;100.00;51778.12;105671;1254;72417;-45
2023/11/20 06:34:04;;;;;;;18.50;12.30;;;;;;;-147.86;100.00;51811.86;105845;1257;61143;-46
2023/11/20 06:36:31;;;;;;;17.60;9.40;;;;;;;-147.86;100.00;51794.21;105831;1254;60172;-42
2023/11/20 06:38:59;;;;;;;20.00;11.80;;;;;;;-147.86;100.00;51788.32;105862;1257;72967;-49
2023/11/20 06:41:28;;;;;;;23.30;11.90;;;;;;;-147.86;100.00;51789.10;105853;1257;65423;-50
2023/11/20 06:43:55;;;;;;;17.50;10.10;;;;;;;-147.86;100.00;51776.94;105850;1258;72712;-43
2023/11/20 06:46:22;;;;;;;18.00;10.90;;;;;;;-147.86;100.00;51778.12;105716;1254;59899;-44
2023/11/20 06:48:49;;;;;;;20.10;11.00;;;;;;;-147.86;100.00;51789.89;105896;1254;60283;-46
2023/11/20 06:51:16;;;;;;;25.20;11.00;;;;;;;-147.86;100.00;51793.03;105824;1256;73025;-44
2023/11/20 06:53:46;;;;;;;23.80;12.10;;;;;;;-147.86;100.00;51784.39;105846;1257;65405;-45
2023/11/20 06:56:19;;;;;;;22.00;11.50;;;;;;;-147.86;100.00;51776.54;105856;1254;72742;-45
2023/11/20 06:58:46;;;;;;;19.60;11.60;;;;;;;-147.86;100.00;51774.98;105874;1258;61017;-46
2023/11/20 07:01:13;;;;;;;21.40;11.40;;;;;;;-147.86;100.00;51779.69;105876;1254;60258;-43
2023/11/20 07:03:44;;;;;;;19.20;10.30;;;;;;;-147.86;100.00;51781.65;105806;1260;73021;-43
2023/11/20 07:06:14;;;;;;;16.80;10.20;;;;;;;-147.86;100.00;51765.95;105920;1257;65701;-44
2023/11/20 07:08:41;;;;;;;19.20;11.90;;;;;;;-147.86;100.00;51764.77;105864;1257;70967;-42
2023/11/20 07:11:08;;;;;;;20.90;11.30;;;;;;;-147.86;100.00;51769.09;105900;1257;61168;-46
2023/11/20 07:13:35;;;;;;;19.40;11.10;;;;;;;-147.86;100.00;51758.10;105874;1254;60363;-42
2023/11/20 07:16:02;;;;;;;21.50;11.30;;;;;;;-147.86;100.00;51756.14;105832;1257;73005;-46
2023/11/20 07:18:30;;;;;;;20.10;11.50;;;;;;;-147.86;100.00;51758.49;105859;1258;65356;-45
2023/11/20 07:20:57;;;;;;;21.40;11.20;;;;;;;-147.86;100.00;51745.54;105867;1257;72642;-45
2023/11/20 07:23:24;;;;;;;17.70;9.50;;;;;;;-147.86;100.00;51749.07;105885;1256;61197;-44
2023/11/20 07:25:53;;;;;;;20.60;11.10;;;;;;;-147.86;100.00;51747.90;105902;1257;60221;-41
2023/11/20 07:28:21;;;;;;;18.90;12.10;;;;;;;-147.86;100.00;51748.29;105868;1254;73071;-45
2023/11/20 07:30:48;;;;;;;17.00;10.10;;;;;;;-147.86;100.00;51729.46;105897;1257;65684;-47
2023/11/20 07:33:15;;;;;;;19.40;11.00;;;;;;;-147.86;100.00;51720.82;105877;1257;73001;-45
2023/11/20 07:35:43;;;;;;;21.20;11.60;;;;;;;-147.86;100.00;51712.97;105870;1257;61687;-45
2023/11/20 07:38:10;;;;;;;20.10;10.60;;;;;;;-147.86;100.00;51707.09;105897;1254;60185;-42
2023/11/20 07:40:37;;;;;;;17.60;10.00;;;;;;;-147.86;100.00;51701.20;105901;1258;72061;-44
2023/11/20 07:43:04;;;;;;;18.90;10.50;;;;;;;-147.86;100.00;51691.39;105845;1257;65398;-45
2023/11/20 07:45:32;;;;;;;23.40;13.10;;;;;;;-147.86;100.00;51691.78;105957;1257;72529;-42
2023/11/20 07:47:59;;;;;;;21.70;12.30;;;;;;;-147.86;100.00;51686.29;105852;1258;60995;-44
2023/11/20 07:50:26;;;;;;;22.90;13.20;;;;;;;-147.86;100.00;51674.52;105862;1260;60121;-44
2023/11/20 07:52:53;;;;;;;29.70;13.30;;;;;;;-147.86;100.00;51657.64;105878;1257;73360;-44
2023/11/20 07:55:20;;;;;;;18.20;11.80;;;;;;;-147.86;100.00;51654.90;105876;1260;65485;-43
2023/11/20 07:57:47;;;;;;;20.10;11.90;;;;;;;-147.86;100.00;51658.04;105861;1256;72461;-43
2023/11/20 08:00:15;;;;;;;24.10;12.50;;;;;;;-147.86;100.00;51627.04;105792;1257;61020;-42
2023/11/20 08:02:41;;;;;;;18.50;11.40;;;;;;;-147.86;100.00;51621.15;105906;1256;60313;-43
2023/11/20 08:05:09;;;;;;;20.70;12.50;;;;;;;-147.86;100.00;51606.24;105849;1257;73980;-43
2023/11/20 08:07:37;;;;;;;22.40;13.10;;;;;;;-147.86;100.00;51606.63;105880;1257;65345;-42
2023/11/20 08:10:04;;;;;;;25.80;13.30;;;;;;;-147.86;100.00;51603.49;105834;1254;73261;-44
2023/11/20 08:12:33;;;;;;;22.00;12.10;;;;;;;-147.86;100.00;51583.87;105883;1259;59790;-42
2023/11/20 08:15:02;;;;;;;20.30;11.90;;;;;;;-147.86;100.00;51574.05;105874;1254;61175;-47
2023/11/20 08:17:30;;;;;;;19.10;12.10;;;;;;;-147.86;100.00;51553.65;105855;1257;72880;-44
2023/11/20 08:19:57;;;;;;;21.70;11.70;;;;;;;-147.86;100.00;51555.23;105856;1256;65192;-44
2023/11/20 08:22:25;;;;;;;21.20;12.30;;;;;;;-147.86;100.00;51532.07;105850;1260;72657;-45
2023/11/20 08:24:52;;;;;;;23.70;12.30;;;;;;;-147.86;100.00;51526.19;105875;1259;61493;-45
2023/11/20 08:27:19;;;;;;;19.80;12.10;;;;;;;-147.86;100.00;51510.09;105895;1254;60486;-44
2023/11/20 08:29:46;;;;;;;22.20;11.90;;;;;;;-147.86;100.00;51484.59;105827;1256;74118;-45
2023/11/20 08:32:13;;;;;;;21.80;12.30;;;;;;;-147.86;100.00;51485.38;105839;1258;65121;-42
2023/11/20 08:34:40;;;;;;;18.80;11.50;;;;;;;-147.86;100.00;51456.34;105807;1256;72763;-44
2023/11/20 08:37:07;;;;;;;22.30;10.80;;;;;;;-147.86;100.00;51435.15;105822;1259;60974;-45
2023/11/20 08:39:35;;;;;;;22.30;11.20;;;;;;;-147.86;100.00;51425.73;105832;1258;61390;-43
2023/11/20 08:42:03;;;;;;;24.50;12.40;;;;;;;-147.86;100.00;51412.00;105926;1257;73665;-42
2023/11/20 08:44:30;;;;;;;20.10;11.80;;;;;;;-147.86;100.00;51402.19;105881;1256;64541;-44
2023/11/20 08:46:58;;;;;;;20.10;9.90;;;;;;;-147.86;100.00;51381.79;105874;1259;72682;-46
2023/11/20 08:49:26;;;;;;;22.00;13.90;;;;;;;-147.86;100.00;51368.05;105813;1259;61143;-44
2023/11/20 08:51:53;;;;;;;19.50;10.30;;;;;;;-147.86;100.00;51364.52;105864;1258;60520;-41
2023/11/20 08:54:32;;;;;;;19.30;11.40;;;;;;;-147.86;100.00;51341.76;105792;1257;74561;-45
2023/11/20 08:56:59;;;;;;;21.50;12.00;;;;;;;-147.86;100.00;51335.09;105880;1254;65535;-45
2023/11/20 08:59:26;;;;;;;20.20;11.80;;;;;;;-147.86;100.00;51316.65;105848;1257;73008;-44
2023/11/20 09:01:56;;;;;;;20.50;11.50;;;;;;;-147.86;100.00;51308.80;105898;1257;62104;-47
2023/11/20 09:04:24;;;;;;;21.40;12.50;;;;;;;-147.86;100.00;51294.68;105848;1254;60984;-45
2023/11/20 09:06:51;;;;;;;20.70;10.90;;;;;;;-147.86;100.00;51271.91;105865;1258;74941;-46
2023/11/20 09:09:18;;;;;;;21.00;11.40;;;;;;;-147.86;100.00;51283.30;105808;1257;65544;-44
2023/11/20 09:11:45;;;;;;;23.70;11.40;;;;;;;-147.86;100.00;51242.10;105848;1257;72701;-44
2023/11/20 09:14:12;;;;;;;20.80;11.40;;;;;;;-147.86;100.00;51213.06;105887;1257;61014;-43
2023/11/20 09:16:39;;;;;;;22.90;12.00;;;;;;;-147.86;100.00;51217.77;105917;1259;60338;-46
2023/11/20 09:19:07;;;;;;;21.60;12.30;;;;;;;-147.86;100.00;51172.25;105822;1257;74537;-42
2023/11/20 09:21:34;;;;;;;21.40;10.90;;;;;;;-147.86;100.00;51181.28;105864;1258;65207;-45
2023/11/20 09:24:01;;;;;;;20.10;11.70;;;;;;;-147.86;100.00;51158.91;105846;1258;72145;-46
2023/11/20 09:26:28;;;;;;;20.50;12.40;;;;;;;-147.86;100.00;51154.99;105832;1255;61118;-42
2023/11/20 09:28:55;;;;;;;20.40;11.80;;;;;;;-147.86;100.00;51147.54;105911;1257;60425;-42
2023/11/20 09:31:22;;;;;;;23.30;11.60;;;;;;;-147.86;100.00;51141.26;105872;1254;74913;-44
2023/11/20 09:33:50;;;;;;;20.30;10.80;;;;;;;-147.86;100.00;51131.45;105832;1258;65479;-43
2023/11/20 09:36:20;;;;;;;23.30;12.10;;;;;;;-147.86;100.00;51107.91;105867;1256;72489;-42
2023/11/20 09:38:47;;;;;;;18.50;10.90;;;;;;;-147.86;100.00;51095.74;105856;1257;60833;-45
2023/11/20 09:41:14;;;;;;;19.50;10.90;;;;;;;-147.86;100.00;51062.00;105838;1254;60537;-45
2023/11/20 09:43:43;;;;;;;16.20;9.80;;;;;;;-147.86;100.00;51076.91;105767;1257;74111;-44
2023/11/20 09:46:11;;;;;;;21.20;11.50;;;;;;;-147.86;100.00;51060.82;105908;1253;64433;-43
2023/11/20 09:48:39;;;;;;;16.00;10.60;;;;;;;-147.86;100.00;51049.05;105947;1256;73467;-42
2023/11/20 09:51:10;;;;;;;21.00;12.20;;;;;;;-147.86;100.00;51047.48;105888;1256;60990;-41
2023/11/20 09:53:41;;;;;;;21.80;11.90;;;;;;;-147.86;100.00;51029.43;105900;1252;60456;-39
2023/11/20 09:56:12;;;;;;;18.80;11.30;;;;;;;-147.86;100.00;51015.70;105864;1257;73790;-40
2023/11/20 09:58:41;;;;;;;23.90;11.60;;;;;;;-147.86;100.00;50997.26;105941;1257;65471;-44
2023/11/20 10:01:10;;;;;;;22.20;11.40;;;;;;;-147.86;100.00;50970.98;105864;1255;72614;-44
2023/11/20 10:03:41;;;;;;;22.40;12.00;;;;;;;-147.86;100.00;50960.77;105916;1257;60408;-43
2023/11/20 10:06:13;;;;;;;20.90;11.30;;;;;;;-147.86;100.00;50925.86;105882;1254;60550;-42
2023/11/20 10:08:40;;;;;;;18.30;10.90;;;;;;;-147.86;100.00;50888.98;105896;1254;73301;-42
2023/11/20 10:11:07;;;;;;;22.90;13.40;;;;;;;-147.86;100.00;50843.46;105845;1257;65671;-41
2023/11/20 10:13:35;;;;;;;18.90;11.30;;;;;;;-147.86;100.00;50787.36;105910;1256;72731;-44
2023/11/20 10:16:02;;;;;;;25.00;12.90;;;;;;;-147.86;100.00;50722.24;105820;1258;61015;-44
2023/11/20 10:18:29;;;;;;;23.60;12.70;;;;;;;-147.86;100.00;50688.49;105914;1255;60530;-42
2023/11/20 10:20:57;;;;;;;26.30;11.80;;;;;;;-147.86;100.00;50619.84;105851;1256;73729;-42
2023/11/20 10:23:25;;;;;;;19.60;11.50;;;;;;;-147.86;100.00;50580.61;105914;1256;65456;-42
2023/11/20 10:25:52;;;;;;;19.70;11.50;;;;;;;-147.86;100.00;50512.74;105901;1256;72698;-44
2023/11/20 10:28:21;;;;;;;23.00;11.90;;;;;;;-147.86;100.00;50477.04;105719;1260;61442;-46
2023/11/20 10:30:49;;;;;;;23.10;11.20;;;;;;;-147.86;100.00;50426.83;105879;1255;60405;-44
2023/11/20 10:33:20;;;;;;;18.10;10.20;;;;;;;-147.86;100.00;50363.28;105756;1254;75019;-42
2023/11/20 10:35:50;;;;;;;18.10;9.40;;;;;;;-147.86;100.00;50302.87;105983;1256;65649;-43
2023/11/20 10:38:18;;;;;;;19.20;10.80;;;;;;;-147.86;100.00;50250.69;105921;1257;73424;-46
2023/11/20 10:40:44;;;;;;;18.10;10.90;;;;;;;-147.86;100.00;50207.15;105899;1257;60977;-42
2023/11/20 10:43:12;;;;;;;14.70;8.50;;;;;;;-147.86;100.00;50161.64;105867;1252;60630;-46
2023/11/20 10:45:40;;;;;;;17.80;10.40;;;;;;;-147.86;100.00;50124.77;105991;1264;73931;-45
2023/11/20 10:48:07;;;;;;;17.70;9.30;;;;;;;-147.86;100.00;50075.35;105923;1257;65837;-41
2023/11/20 10:50:35;;;;;;;20.10;10.80;;;;;;;-147.86;100.00;50051.81;105885;1254;72577;-44
2023/11/20 10:53:06;;;;;;;12.90;8.10;;;;;;;-147.86;100.00;50005.92;105933;1256;61225;-41
2023/11/20 10:55:50;;;;;;;13.40;9.80;;;;;;;-147.86;100.00;49958.06;105878;1254;61344;-43